Time;durP1;ratioP1;P1;durP2;ratioP2;P2;SDS_P1;SDS_P2;PMS_P1;PMS_P2;Temp;Humidity;BMP_temperature;BMP_pressure;BME280_temperature;BME280_humidity;BME280_pressure;Samples;Min_cycle;Max_cycle;Signal;HPM_P1;HPM_P2
2022/07/06 00:01:20;;;;;;;8.75;4.35;;;;;;;12.02;81.40;102487.28;5025636;28;20040;-72
2022/07/06 00:03:45;;;;;;;7.82;4.35;;;;;;;11.95;81.59;102492.72;5028185;28;20405;-68
2022/07/06 00:06:11;;;;;;;7.95;4.72;;;;;;;11.91;81.81;102497.81;5025665;28;20053;-72
2022/07/06 00:08:37;;;;;;;10.32;4.70;;;;;;;11.86;82.32;102500.31;5032973;28;20105;-71
2022/07/06 00:11:03;;;;;;;8.88;4.78;;;;;;;11.85;82.89;102500.47;5032288;28;20057;-71
2022/07/06 00:13:28;;;;;;;10.77;5.43;;;;;;;11.82;83.32;102503.66;5026936;28;20032;-72
2022/07/06 00:15:53;;;;;;;12.68;5.47;;;;;;;11.80;83.20;102506.53;5031408;28;20112;-71
2022/07/06 00:18:19;;;;;;;11.25;5.03;;;;;;;11.73;83.38;102502.03;5043778;28;20052;-71
2022/07/06 00:20:44;;;;;;;10.15;5.32;;;;;;;11.67;83.54;102499.03;5032234;28;20028;-72
2022/07/06 00:23:10;;;;;;;11.32;5.40;;;;;;;11.64;83.57;102507.66;5025152;28;20028;-72
2022/07/06 00:25:35;;;;;;;10.55;5.72;;;;;;;11.62;83.53;102511.69;5023956;28;20551;-72
2022/07/06 00:28:00;;;;;;;11.80;5.07;;;;;;;11.61;83.74;102505.34;5041439;28;20029;-71
2022/07/06 00:30:25;;;;;;;10.82;4.93;;;;;;;11.62;83.76;102500.69;5043632;28;20174;-72
2022/07/06 00:32:51;;;;;;;12.68;5.60;;;;;;;11.65;84.39;102511.28;5030054;28;20025;-71
2022/07/06 00:35:16;;;;;;;12.32;5.72;;;;;;;11.67;83.81;102517.44;5044948;28;20040;-72
2022/07/06 00:37:41;;;;;;;9.90;5.10;;;;;;;11.66;84.00;102504.75;5044894;28;20385;-72
2022/07/06 00:40:07;;;;;;;9.75;5.00;;;;;;;11.67;83.84;102507.28;5044441;28;20039;-72
2022/07/06 00:42:45;;;;;;;10.07;5.43;;;;;;;11.68;84.03;102500.72;5045746;28;20374;-72
2022/07/06 00:45:13;;;;;;;13.00;5.78;;;;;;;11.62;83.88;102501.53;5025409;28;20394;-72
2022/07/06 00:47:39;;;;;;;10.07;5.03;;;;;;;11.62;84.78;102506.19;5024711;28;20386;-71
2022/07/06 00:50:17;;;;;;;11.77;5.63;;;;;;;11.62;84.79;102498.78;5023677;28;20032;-72
2022/07/06 00:52:47;;;;;;;10.77;6.00;;;;;;;11.59;84.78;102495.56;5037511;28;20048;-72
2022/07/06 00:55:14;;;;;;;12.07;5.22;;;;;;;11.55;84.39;102497.84;5033222;28;20032;-71
2022/07/06 00:57:41;;;;;;;11.43;5.03;;;;;;;11.51;84.67;102499.31;5023947;28;20059;-72
2022/07/06 01:00:09;;;;;;;10.15;5.78;;;;;;;11.51;84.49;102499.31;5014388;28;20024;-71
2022/07/06 01:02:35;;;;;;;10.15;5.35;;;;;;;11.53;84.58;102491.69;5024489;28;20029;-71
2022/07/06 01:05:04;;;;;;;11.40;5.40;;;;;;;11.53;84.53;102491.69;5023671;28;20049;-72
2022/07/06 01:07:29;;;;;;;;;;;;;;;11.71;81.78;102496.75;5022347;28;20041;-71
2022/07/06 01:09:55;;;;;;;10.35;5.38;;;;;;;11.59;83.64;102498.31;5028644;23;19927;-72
2022/07/06 01:12:20;;;;;;;10.93;6.03;;;;;;;11.58;83.80;102497.47;5021829;28;20501;-72
2022/07/06 01:14:47;;;;;;;17.17;7.03;;;;;;;11.61;83.81;102493.47;5023356;28;20132;-72
2022/07/06 01:17:14;;;;;;;11.02;6.05;;;;;;;11.58;83.81;102500.22;5022480;28;20022;-72
2022/07/06 01:19:40;;;;;;;16.33;6.28;;;;;;;11.62;83.26;102497.94;5023962;28;20021;-72
2022/07/06 01:22:05;;;;;;;14.13;6.20;;;;;;;11.62;83.02;102495.19;5025038;28;20037;-71
2022/07/06 01:24:30;;;;;;;12.05;6.78;;;;;;;11.61;83.59;102493.47;5023878;28;20361;-72
2022/07/06 01:26:57;;;;;;;11.30;6.60;;;;;;;11.56;83.58;102502.31;5017643;28;20086;-72
2022/07/06 01:29:22;;;;;;;14.27;6.60;;;;;;;11.53;83.42;102505.44;5023442;28;20061;-72
2022/07/06 01:31:49;;;;;;;12.48;6.25;;;;;;;11.49;84.19;102503.28;5021419;28;20049;-72
2022/07/06 01:34:16;;;;;;;12.63;6.60;;;;;;;11.51;84.23;102509.47;5022460;28;20033;-71
2022/07/06 01:36:42;;;;;;;16.37;6.80;;;;;;;11.53;83.46;102497.19;5023658;28;20037;-71
2022/07/06 01:39:08;;;;;;;15.32;6.63;;;;;;;11.52;83.30;102495.50;5023462;28;20279;-72
2022/07/06 01:41:34;;;;;;;15.10;7.28;;;;;;;11.49;83.83;102489.53;5023527;28;20025;-71
2022/07/06 01:44:00;;;;;;;14.15;6.57;;;;;;;11.51;83.42;102498.47;5019897;28;20152;-71
2022/07/06 01:46:25;;;;;;;15.35;7.07;;;;;;;11.49;83.68;102495.03;5024265;28;20068;-71
2022/07/06 01:48:50;;;;;;;13.52;7.20;;;;;;;11.49;83.51;102495.88;5024748;28;20033;-72
2022/07/06 01:51:16;;;;;;;16.90;8.25;;;;;;;11.47;83.94;102497.16;5024105;28;20478;-73
2022/07/06 01:53:41;;;;;;;14.43;7.47;;;;;;;11.38;83.84;102501.91;5022498;28;20053;-72
2022/07/06 01:56:07;;;;;;;15.80;6.95;;;;;;;11.34;84.82;102503.34;5021670;28;20101;-72
2022/07/06 01:58:32;;;;;;;13.35;8.05;;;;;;;11.36;83.92;102496.63;5025091;28;20024;-72
2022/07/06 02:00:59;;;;;;;13.40;7.38;;;;;;;11.31;84.13;102498.25;5024522;28;20034;-72
2022/07/06 02:03:24;;;;;;;16.40;7.65;;;;;;;11.31;83.74;102501.84;5024865;28;20101;-73
2022/07/06 02:05:50;;;;;;;13.68;7.60;;;;;;;11.30;84.00;102497.38;5023001;28;20151;-72
2022/07/06 02:08:15;;;;;;;14.05;7.28;;;;;;;11.30;83.76;102496.53;5022620;28;20106;-66
2022/07/06 02:10:40;;;;;;;14.27;7.60;;;;;;;11.26;84.27;102496.09;5024473;28;20064;-73
2022/07/06 02:13:06;;;;;;;17.05;7.40;;;;;;;11.25;84.23;102499.00;5022011;28;20041;-72
2022/07/06 02:15:31;;;;;;;15.48;8.30;;;;;;;11.20;84.48;102498.75;5021568;28;20029;-72
2022/07/06 02:17:56;;;;;;;14.10;7.25;;;;;;;11.17;84.46;102498.09;5023555;28;20025;-72
2022/07/06 02:20:21;;;;;;;12.75;7.35;;;;;;;11.11;84.58;102498.03;5023585;28;20045;-72
2022/07/06 02:22:47;;;;;;;16.40;8.25;;;;;;;11.10;84.92;102504.53;5024543;28;20026;-73
2022/07/06 02:25:12;;;;;;;15.50;7.85;;;;;;;11.10;84.75;102508.19;5021761;28;20276;-72
2022/07/06 02:27:37;;;;;;;15.50;8.13;;;;;;;11.06;84.81;102504.09;5022965;28;20026;-72
2022/07/06 02:30:05;;;;;;;16.00;8.15;;;;;;;11.03;85.21;102504.47;5024183;28;20046;-73
2022/07/06 02:32:30;;;;;;;14.55;9.02;;;;;;;11.03;85.13;102506.38;5023919;28;20057;-72
2022/07/06 02:34:55;;;;;;;14.23;8.10;;;;;;;11.03;85.28;102506.38;5023131;28;20099;-72
2022/07/06 02:37:21;;;;;;;17.30;8.68;;;;;;;11.02;84.75;102488.19;5022051;28;20037;-73
2022/07/06 02:39:46;;;;;;;14.55;8.13;;;;;;;10.93;85.24;102492.94;5023700;28;20620;-73
2022/07/06 02:42:11;;;;;;;15.07;8.00;;;;;;;10.86;86.01;102501.09;5024805;28;20041;-73
2022/07/06 02:44:36;;;;;;;18.27;8.68;;;;;;;10.86;86.18;102495.63;5024901;28;20445;-73
2022/07/06 02:47:02;;;;;;;17.10;9.05;;;;;;;10.89;85.96;102495.22;5024854;28;20025;-72
2022/07/06 02:49:27;;;;;;;20.50;9.50;;;;;;;10.84;85.45;102492.19;5026941;28;20076;-73
2022/07/06 02:51:52;;;;;;;16.48;9.60;;;;;;;10.85;85.63;102496.66;5027748;28;20427;-72
2022/07/06 02:54:18;;;;;;;17.85;9.65;;;;;;;10.89;85.79;102497.09;5026378;28;20025;-72
2022/07/06 02:56:44;;;;;;;16.20;9.05;;;;;;;10.82;85.69;102504.44;5027812;28;20551;-73
2022/07/06 02:59:09;;;;;;;16.90;9.48;;;;;;;10.82;85.93;102502.53;5028029;28;20029;-73
2022/07/06 03:01:35;;;;;;;17.50;9.38;;;;;;;10.76;86.17;102499.72;5026692;28;20040;-73
2022/07/06 03:04:00;;;;;;;18.38;9.73;;;;;;;10.70;86.22;102501.34;5025660;28;20026;-72
2022/07/06 03:06:25;;;;;;;18.63;9.55;;;;;;;10.71;86.42;102508.53;5024625;28;20084;-73
2022/07/06 03:08:50;;;;;;;16.33;9.82;;;;;;;10.70;86.87;102509.56;5026750;28;20057;-73
2022/07/06 03:11:16;;;;;;;17.70;10.05;;;;;;;10.68;86.57;102508.91;5025342;28;20497;-73
2022/07/06 03:13:41;;;;;;;16.35;9.63;;;;;;;10.65;86.85;102504.66;5028091;28;20034;-72
2022/07/06 03:16:06;;;;;;;16.88;10.15;;;;;;;10.66;87.45;102505.50;5024505;28;20033;-73
2022/07/06 03:18:32;;;;;;;20.77;10.70;;;;;;;10.66;87.32;102505.50;5026868;28;20064;-73
2022/07/06 03:20:57;;;;;;;18.02;10.38;;;;;;;10.64;87.37;102507.56;5027275;28;20030;-73
2022/07/06 03:23:22;;;;;;;21.15;11.00;;;;;;;10.64;87.57;102513.06;5024770;28;20232;-73
2022/07/06 03:25:47;;;;;;;17.80;10.32;;;;;;;10.62;87.17;102509.66;5025454;28;20029;-73
2022/07/06 03:28:13;;;;;;;18.77;10.57;;;;;;;10.60;87.25;102509.00;5026245;28;20034;-73
2022/07/06 03:30:38;;;;;;;19.70;10.32;;;;;;;10.60;87.63;102517.25;5026151;28;20120;-72
2022/07/06 03:33:03;;;;;;;20.30;10.65;;;;;;;10.58;87.66;102502.84;5026228;28;20045;-71
2022/07/06 03:35:29;;;;;;;21.92;10.60;;;;;;;10.61;87.70;102507.97;5024576;28;20025;-73
2022/07/06 03:37:54;;;;;;;20.70;11.10;;;;;;;10.59;87.23;102505.41;5026891;28;20036;-72
2022/07/06 03:40:19;;;;;;;22.40;10.65;;;;;;;10.62;87.24;102507.75;5025678;28;20083;-73
2022/07/06 03:42:45;;;;;;;19.95;10.63;;;;;;;10.63;87.09;102509.47;5028054;28;20079;-73
2022/07/06 03:45:10;;;;;;;17.15;10.18;;;;;;;10.59;87.20;102510.03;5024681;28;20037;-73
2022/07/06 03:47:36;;;;;;;17.30;8.55;;;;;;;10.52;86.00;102507.19;5023951;28;20034;-73
2022/07/06 03:50:01;;;;;;;19.35;9.65;;;;;;;10.43;86.90;102504.72;5009463;28;20415;-73
2022/07/06 03:52:26;;;;;;;17.17;10.05;;;;;;;10.37;87.43;102509.94;5020769;28;20022;-73
2022/07/06 03:54:51;;;;;;;20.20;10.50;;;;;;;10.32;87.79;102506.91;5025015;28;20113;-71
2022/07/06 03:57:17;;;;;;;16.98;10.40;;;;;;;10.33;88.46;102508.59;5023403;28;20731;-73
2022/07/06 03:59:42;;;;;;;17.58;10.15;;;;;;;10.36;88.84;102511.00;5010012;28;20026;-72
2022/07/06 04:02:07;;;;;;;20.50;11.10;;;;;;;10.42;88.37;102519.50;5025170;28;20474;-73
2022/07/06 04:04:35;;;;;;;23.50;12.00;;;;;;;10.48;88.30;102511.38;5024646;28;20348;-72
2022/07/06 04:07:01;;;;;;;23.58;12.30;;;;;;;10.52;88.40;102509.94;5023245;28;20022;-73
2022/07/06 04:09:26;;;;;;;19.02;11.85;;;;;;;10.56;87.96;102504.94;5025661;28;20094;-72
2022/07/06 04:11:51;;;;;;;21.60;12.18;;;;;;;10.58;87.79;102503.69;5009573;28;20196;-69
2022/07/06 04:14:17;;;;;;;20.42;10.48;;;;;;;10.54;87.62;102504.25;5024000;28;20044;-73
2022/07/06 04:16:42;;;;;;;19.50;10.85;;;;;;;10.51;87.14;102504.66;5018843;28;20030;-73
2022/07/06 04:19:07;;;;;;;18.95;10.80;;;;;;;10.42;87.28;102508.53;5022071;28;20470;-72
2022/07/06 04:21:32;;;;;;;19.25;10.20;;;;;;;10.36;88.06;102505.50;5024898;28;20029;-73
2022/07/06 04:23:58;;;;;;;17.92;10.45;;;;;;;10.28;88.51;102499.22;5023254;28;20030;-72
2022/07/06 04:26:23;;;;;;;19.70;10.68;;;;;;;10.26;88.92;102498.59;5025229;28;20052;-73
2022/07/06 04:28:48;;;;;;;22.85;11.52;;;;;;;10.27;89.62;102501.13;5024915;28;20091;-72
2022/07/06 04:31:15;;;;;;;17.58;10.98;;;;;;;10.28;89.69;102505.56;5024339;28;20065;-73
2022/07/06 04:33:42;;;;;;;18.25;10.98;;;;;;;10.30;89.91;102494.41;5022542;28;20033;-73
2022/07/06 04:36:08;;;;;;;18.15;10.77;;;;;;;10.34;89.95;102503.97;5019109;28;20433;-73
2022/07/06 04:38:33;;;;;;;23.55;11.93;;;;;;;10.33;89.23;102499.50;5023761;28;20080;-73
2022/07/06 04:40:58;;;;;;;21.48;11.98;;;;;;;10.30;89.37;102502.66;5021728;28;20089;-73
2022/07/06 04:43:24;;;;;;;19.63;11.27;;;;;;;10.26;89.51;102499.44;5023593;28;20033;-73
2022/07/06 04:45:49;;;;;;;24.20;13.73;;;;;;;10.27;89.95;102500.28;5017482;28;20513;-73
2022/07/06 04:48:14;;;;;;;21.42;12.18;;;;;;;10.29;90.38;102499.06;5013980;28;20153;-72
2022/07/06 04:50:39;;;;;;;22.30;12.50;;;;;;;10.29;90.83;102496.31;5018830;28;20615;-73
2022/07/06 04:53:05;;;;;;;22.60;12.75;;;;;;;10.34;90.71;102501.22;5003608;28;20034;-75
2022/07/06 04:55:30;;;;;;;21.23;12.75;;;;;;;10.39;90.93;102498.75;5005193;28;20026;-74
2022/07/06 04:57:55;;;;;;;23.38;13.05;;;;;;;10.45;91.59;102503.53;5005116;28;20460;-73
2022/07/06 05:00:21;;;;;;;24.73;13.68;;;;;;;10.55;90.72;102506.84;5004382;28;20032;-73
2022/07/06 05:02:46;;;;;;;21.25;12.52;;;;;;;10.70;90.62;102503.22;5007522;28;20049;-73
2022/07/06 05:05:12;;;;;;;20.75;12.65;;;;;;;10.81;90.05;102509.09;5006209;28;20092;-72
2022/07/06 05:07:39;;;;;;;22.42;12.90;;;;;;;10.98;90.20;102506.97;5004586;28;20034;-73
2022/07/06 05:10:06;;;;;;;22.70;13.68;;;;;;;11.11;89.87;102511.78;5003951;28;20048;-73
2022/07/06 05:12:32;;;;;;;26.75;13.68;;;;;;;11.28;89.15;102509.63;5024386;28;20502;-73
2022/07/06 05:14:57;;;;;;;26.17;13.15;;;;;;;11.46;88.85;102510.06;5025394;28;20032;-73
2022/07/06 05:17:22;;;;;;;24.23;13.48;;;;;;;11.58;88.66;102511.22;5026372;28;20083;-72
2022/07/06 05:19:48;;;;;;;24.05;13.30;;;;;;;11.71;88.34;102513.25;5024367;28;20029;-72
2022/07/06 05:22:13;;;;;;;22.52;12.75;;;;;;;11.82;87.88;102518.25;5024771;28;20033;-73
2022/07/06 05:24:38;;;;;;;24.42;13.00;;;;;;;11.92;86.88;102529.78;5023695;28;20120;-72
2022/07/06 05:27:04;;;;;;;24.58;12.70;;;;;;;11.98;87.18;102521.78;5024186;28;20441;-73
2022/07/06 05:29:29;;;;;;;23.17;12.73;;;;;;;11.99;87.37;102524.31;5024600;28;20470;-72
2022/07/06 05:31:54;;;;;;;23.98;11.82;;;;;;;12.01;86.91;102521.34;5023576;28;20557;-73
2022/07/06 05:34:19;;;;;;;24.85;12.70;;;;;;;12.08;86.89;102514.03;5024952;28;20035;-72
2022/07/06 05:36:45;;;;;;;20.90;11.30;;;;;;;12.11;86.50;102521.88;5024755;28;20056;-72
2022/07/06 05:39:10;;;;;;;20.98;11.65;;;;;;;12.18;86.40;102518.13;5023194;28;20021;-72
2022/07/06 05:41:35;;;;;;;22.05;12.35;;;;;;;12.27;86.20;102518.84;5024695;28;20520;-73
2022/07/06 05:44:00;;;;;;;23.90;11.35;;;;;;;12.36;85.79;102520.34;5024430;28;20442;-73
2022/07/06 05:46:26;;;;;;;22.13;11.15;;;;;;;12.50;84.82;102520.44;5024246;28;20024;-73
2022/07/06 05:51:35;;;;;;;20.50;11.02;;;;;;;12.72;85.36;102524.81;5024211;28;20160;-73
2022/07/06 05:54:00;;;;;;;19.35;10.55;;;;;;;12.88;85.04;102529.16;5023391;28;20040;-72
2022/07/06 05:56:26;;;;;;;24.85;10.55;;;;;;;13.00;84.33;102527.50;5024129;28;20389;-72
2022/07/06 05:58:51;;;;;;;20.02;11.10;;;;;;;13.09;84.62;102528.19;5024184;28;20033;-65
2022/07/06 06:01:16;;;;;;;23.05;10.30;;;;;;;13.15;83.58;102527.34;5023460;28;20033;-72
2022/07/06 06:03:41;;;;;;;16.35;9.50;;;;;;;13.20;83.41;102524.81;5024876;28;20035;-73
2022/07/06 06:06:07;;;;;;;19.48;9.40;;;;;;;13.29;83.10;102531.03;5023897;28;20393;-72
2022/07/06 06:08:32;;;;;;;18.17;9.82;;;;;;;13.40;82.67;102531.28;5023507;28;20041;-73
2022/07/06 06:10:57;;;;;;;16.25;9.07;;;;;;;13.59;82.31;102526.88;5023744;28;20128;-75
2022/07/06 06:13:23;;;;;;;17.33;9.60;;;;;;;13.84;81.94;102526.22;5024321;28;20093;-73
2022/07/06 06:15:48;;;;;;;18.23;8.68;;;;;;;14.10;80.66;102530.94;5023833;28;20385;-72
2022/07/06 06:18:16;;;;;;;17.52;8.13;;;;;;;14.33;80.04;102536.84;5024169;28;20652;-72
2022/07/06 06:20:42;;;;;;;14.82;7.90;;;;;;;14.54;79.53;102528.34;5024777;28;20071;-73
2022/07/06 06:23:07;;;;;;;16.55;7.93;;;;;;;14.72;78.82;102527.66;5026784;28;20049;-72
2022/07/06 06:25:35;;;;;;;14.20;7.28;;;;;;;14.83;78.96;102523.38;5027698;28;20036;-73
2022/07/06 06:28:01;;;;;;;13.63;6.57;;;;;;;14.90;78.69;102531.63;5027323;28;20029;-72
2022/07/06 06:30:27;;;;;;;10.10;5.72;;;;;;;14.89;77.93;102528.03;5027262;28;20079;-70
2022/07/06 06:33:13;;;;;;;12.05;5.63;;;;;;;14.97;79.69;102533.31;5027621;28;20034;-71
2022/07/06 06:35:51;;;;;;;9.23;4.53;;;;;;;15.00;77.87;102530.13;5027615;28;20522;-72
2022/07/06 06:38:18;;;;;;;6.60;3.40;;;;;;;15.08;76.62;102529.03;5026215;28;20105;-72
2022/07/06 06:40:43;;;;;;;6.43;3.33;;;;;;;15.16;74.97;102525.16;5027286;28;20025;-72
2022/07/06 06:43:08;;;;;;;7.20;2.80;;;;;;;15.29;75.65;102533.38;5026882;28;20033;-72
2022/07/06 06:45:34;;;;;;;6.85;2.47;;;;;;;15.42;76.47;102530.56;5026597;28;20043;-71
2022/07/06 06:47:59;;;;;;;4.20;1.70;;;;;;;15.50;73.85;102527.50;5026417;28;20500;-72
2022/07/06 06:50:24;;;;;;;4.75;1.75;;;;;;;15.57;73.39;102531.09;5025532;28;20028;-72
2022/07/06 06:52:50;;;;;;;10.60;2.20;;;;;;;15.65;73.63;102531.94;5026623;28;20022;-71
2022/07/06 06:55:16;;;;;;;3.55;1.65;;;;;;;15.72;72.64;102543.81;5024655;28;20076;-71
2022/07/06 06:57:41;;;;;;;3.88;1.60;;;;;;;15.82;70.42;102531.16;5026497;28;20021;-72
2022/07/06 07:00:08;;;;;;;5.00;1.60;;;;;;;15.85;70.78;102535.41;5025440;28;20436;-72
2022/07/06 07:02:33;;;;;;;5.63;1.58;;;;;;;15.91;70.90;102534.50;5020343;28;20151;-70
2022/07/06 07:04:59;;;;;;;4.50;1.60;;;;;;;15.97;70.57;102533.63;5022150;28;20331;-72
2022/07/06 07:07:24;;;;;;;3.88;1.50;;;;;;;15.97;70.31;102539.16;5023632;28;20473;-71
2022/07/06 07:09:49;;;;;;;3.72;1.50;;;;;;;15.99;68.90;102538.94;5007585;28;20091;-72
2022/07/06 07:12:16;;;;;;;3.53;1.35;;;;;;;15.97;69.69;102536.38;5023501;28;20437;-72
2022/07/06 07:14:42;;;;;;;5.60;1.63;;;;;;;15.94;67.95;102539.59;5023299;28;20052;-72
2022/07/06 07:17:07;;;;;;;5.20;1.70;;;;;;;15.98;68.19;102538.06;5023636;28;20449;-71
2022/07/06 07:19:33;;;;;;;4.28;1.45;;;;;;;16.01;67.26;102537.59;5026534;28;20084;-72
2022/07/06 07:21:58;;;;;;;3.25;1.80;;;;;;;15.95;67.94;102544.06;5025381;28;20026;-71
2022/07/06 07:24:23;;;;;;;4.05;1.73;;;;;;;15.92;68.11;102543.69;5024336;28;20103;-71
2022/07/06 07:26:48;;;;;;;2.92;1.55;;;;;;;15.92;69.95;102550.06;5021705;28;20029;-72
2022/07/06 07:29:14;;;;;;;5.18;1.70;;;;;;;16.00;70.83;102547.00;5023773;28;20036;-72
2022/07/06 07:31:39;;;;;;;4.22;1.40;;;;;;;16.01;68.44;102539.53;5024878;28;20485;-72
2022/07/06 07:34:04;;;;;;;2.45;1.50;;;;;;;16.02;68.44;102535.72;5023993;28;20033;-72
2022/07/06 07:36:30;;;;;;;4.38;1.50;;;;;;;16.07;67.57;102545.03;5028033;28;20025;-73
2022/07/06 07:38:55;;;;;;;4.18;1.50;;;;;;;16.18;67.76;102549.00;5023443;28;20029;-72
2022/07/06 07:41:20;;;;;;;3.03;1.33;;;;;;;16.20;66.54;102548.75;5027852;28;20037;-72
2022/07/06 07:43:46;;;;;;;3.28;1.52;;;;;;;16.16;66.34;102539.19;5027135;28;20485;-67
2022/07/06 07:46:11;;;;;;;4.43;1.60;;;;;;;16.31;68.26;102548.88;5024868;28;20075;-71
2022/07/06 07:48:36;;;;;;;4.78;1.95;;;;;;;16.50;68.83;102546.13;5025027;28;20029;-72
2022/07/06 07:51:01;;;;;;;5.38;1.80;;;;;;;16.69;66.58;102533.13;5026180;28;20507;-72
2022/07/06 07:53:27;;;;;;;3.58;1.80;;;;;;;16.73;65.18;102532.47;5022429;28;20030;-71
2022/07/06 07:55:52;;;;;;;4.03;1.35;;;;;;;16.78;64.53;102540.13;5017362;28;20096;-72
2022/07/06 07:58:17;;;;;;;2.30;1.23;;;;;;;16.84;63.71;102530.88;5020150;28;20048;-72
2022/07/06 08:00:43;;;;;;;5.05;1.27;;;;;;;16.79;63.45;102539.03;5025424;28;20076;-71
2022/07/06 08:03:08;;;;;;;2.65;1.00;;;;;;;16.69;63.30;102538.69;5021695;28;20382;-72
2022/07/06 08:05:33;;;;;;;5.80;1.10;;;;;;;16.52;64.08;102528.16;5024679;28;20026;-72
2022/07/06 08:07:58;;;;;;;4.38;1.40;;;;;;;16.73;66.32;102526.09;5022361;28;20049;-72
2022/07/06 08:10:24;;;;;;;2.22;1.00;;;;;;;16.99;65.72;102523.00;5009954;28;20025;-70
2022/07/06 08:12:49;;;;;;;2.88;1.10;;;;;;;17.24;62.75;102524.81;5016507;28;20612;-72
2022/07/06 08:15:15;;;;;;;3.08;1.00;;;;;;;17.45;62.61;102515.09;5024991;28;20036;-67
2022/07/06 08:17:40;;;;;;;4.68;1.15;;;;;;;17.53;62.07;102515.59;5023600;28;20557;-72
2022/07/06 08:20:06;;;;;;;2.97;0.98;;;;;;;17.78;62.72;102521.03;5019144;28;20034;-72
2022/07/06 08:22:31;;;;;;;2.55;0.80;;;;;;;17.86;58.75;102517.91;5012645;28;20038;-73
2022/07/06 08:24:57;;;;;;;5.07;0.82;;;;;;;17.77;57.48;102518.50;5016872;28;20041;-71
2022/07/06 08:27:23;;;;;;;3.42;0.80;;;;;;;17.75;58.60;102517.91;5023036;28;20337;-71
2022/07/06 08:29:48;;;;;;;3.42;1.00;;;;;;;17.73;58.88;102517.25;5023778;28;20128;-72
2022/07/06 08:32:14;;;;;;;5.05;1.15;;;;;;;17.72;57.67;102515.53;5025388;28;20029;-72
2022/07/06 08:34:39;;;;;;;5.00;1.00;;;;;;;17.79;57.68;102517.19;5024021;28;20029;-71
2022/07/06 08:37:04;;;;;;;1.35;0.68;;;;;;;17.91;57.33;102508.00;5022846;28;20481;-72
2022/07/06 08:39:29;;;;;;;2.08;0.60;;;;;;;17.83;56.38;102509.19;5007321;28;20170;-73
2022/07/06 08:41:56;;;;;;;3.85;1.00;;;;;;;17.82;59.54;102511.13;5020223;28;20033;-71
2022/07/06 08:44:23;;;;;;;4.28;0.93;;;;;;;18.06;57.88;102511.16;5018893;28;20086;-70
2022/07/06 08:46:51;;;;;;;2.08;0.80;;;;;;;18.30;58.31;102512.03;5019967;28;20034;-71
2022/07/06 08:49:17;;;;;;;2.38;0.70;;;;;;;18.44;55.18;102501.50;5022060;28;20026;-72
2022/07/06 08:51:43;;;;;;;3.03;0.70;;;;;;;18.42;56.62;102510.94;5018798;28;20040;-71
2022/07/06 08:54:09;;;;;;;3.70;0.88;;;;;;;18.53;56.85;102506.44;5022819;28;20087;-71
2022/07/06 08:56:34;;;;;;;2.90;0.68;;;;;;;18.68;55.85;102497.63;5020818;28;20305;-71
2022/07/06 08:59:00;;;;;;;2.08;0.70;;;;;;;18.91;55.78;102496.72;5023708;28;20033;-72
2022/07/06 09:01:26;;;;;;;2.95;0.98;;;;;;;19.23;54.23;102507.41;5024380;28;20452;-73
2022/07/06 09:03:53;;;;;;;4.55;0.73;;;;;;;19.34;53.53;102506.50;5017254;28;20037;-65
2022/07/06 09:06:26;;;;;;;4.00;0.80;;;;;;;19.45;51.34;102508.38;5023761;28;20389;-72
2022/07/06 09:08:55;;;;;;;3.25;0.80;;;;;;;19.31;51.37;102507.84;5023256;28;20406;-67
2022/07/06 09:11:22;;;;;;;2.60;0.70;;;;;;;19.12;52.61;102509.13;5025606;28;20197;-71
2022/07/06 09:13:48;;;;;;;4.38;1.00;;;;;;;18.98;53.00;102516.06;5025951;28;20025;-72
2022/07/06 09:16:16;;;;;;;4.03;0.90;;;;;;;18.96;50.84;102509.88;5024767;28;20013;-71
2022/07/06 09:18:45;;;;;;;;;;;;;;;19.26;51.93;102509.66;5026254;28;20029;-71
2022/07/06 09:21:11;;;;;;;3.78;0.70;;;;;;;19.20;50.38;102514.28;5025724;28;19915;-71
2022/07/06 09:23:38;;;;;;;2.88;1.00;;;;;;;19.41;51.50;102512.75;5024589;28;20100;-71
2022/07/06 09:26:05;;;;;;;3.17;0.98;;;;;;;19.74;50.00;102511.16;5023987;28;20034;-71
2022/07/06 09:28:44;;;;;;;4.07;0.80;;;;;;;19.92;49.71;102509.00;5023975;28;20526;-71
2022/07/06 09:31:09;;;;;;;4.30;1.10;;;;;;;20.21;48.13;102508.88;5021665;28;20033;-70
2022/07/06 09:33:35;;;;;;;1.75;0.68;;;;;;;20.84;51.16;102503.97;5021765;28;20343;-71
2022/07/06 09:36:01;;;;;;;2.42;0.70;;;;;;;20.83;49.68;102510.63;5010068;28;20044;-72
2022/07/06 09:38:27;;;;;;;6.07;0.70;;;;;;;21.46;45.22;102504.44;5024373;28;20030;-72
2022/07/06 09:40:52;;;;;;;2.80;0.70;;;;;;;23.35;46.09;102511.31;5022105;28;20036;-71
2022/07/06 09:43:21;;;;;;;3.15;0.70;;;;;;;23.46;37.80;102523.38;5024516;28;20033;-71
2022/07/06 09:45:49;;;;;;;3.28;1.02;;;;;;;22.89;39.16;102527.13;5024492;28;20068;-71
2022/07/06 09:48:18;;;;;;;2.63;0.50;;;;;;;22.02;40.72;102520.91;5024982;28;20105;-70
2022/07/06 09:50:46;;;;;;;2.33;0.50;;;;;;;21.37;43.22;102520.00;5023354;28;20073;-71
2022/07/06 09:53:13;;;;;;;4.18;0.77;;;;;;;20.97;43.34;102521.16;5018832;28;20049;-71
2022/07/06 09:55:46;;;;;;;1.42;0.60;;;;;;;20.86;47.14;102522.13;5027076;28;20026;-70
2022/07/06 09:58:12;;;;;;;3.15;0.65;;;;;;;21.33;44.39;102520.78;5028913;28;20029;-71
2022/07/06 10:00:38;;;;;;;1.88;0.60;;;;;;;21.60;42.11;102529.19;5027363;28;20025;-71
2022/07/06 10:03:04;;;;;;;2.85;0.75;;;;;;;21.65;44.71;102526.44;5026865;28;20026;-70
2022/07/06 10:05:31;;;;;;;2.65;0.70;;;;;;;21.41;45.72;102531.50;5027891;28;20538;-70
2022/07/06 10:07:59;;;;;;;2.00;0.70;;;;;;;21.24;43.69;102538.00;5026058;28;20032;-70
2022/07/06 10:10:26;;;;;;;2.92;0.70;;;;;;;21.36;45.09;102534.25;5018199;28;20534;-70
2022/07/06 10:12:55;;;;;;;3.40;0.63;;;;;;;21.25;45.50;102525.72;5024371;28;20033;-70
2022/07/06 10:15:23;;;;;;;1.98;0.70;;;;;;;21.20;43.92;102527.59;5027713;28;20075;-70
2022/07/06 10:17:49;;;;;;;2.80;0.60;;;;;;;21.15;45.71;102531.19;5027632;28;20128;-70
2022/07/06 10:20:15;;;;;;;3.08;0.80;;;;;;;20.90;43.55;102528.06;5025104;28;20484;-69
2022/07/06 10:22:40;;;;;;;2.60;0.60;;;;;;;20.86;44.78;102543.63;5017847;28;20061;-69
2022/07/06 10:25:06;;;;;;;3.00;0.70;;;;;;;20.66;43.95;102542.25;5027635;28;20117;-71
2022/07/06 10:27:34;;;;;;;3.03;0.60;;;;;;;20.62;45.25;102543.84;5025795;28;20582;-70
2022/07/06 10:30:00;;;;;;;5.30;1.13;;;;;;;20.94;43.38;102534.81;5018997;28;20018;-71
2022/07/06 10:32:26;;;;;;;3.35;0.80;;;;;;;21.09;43.55;102528.59;5021779;28;20029;-72
2022/07/06 10:34:51;;;;;;;4.10;0.77;;;;;;;21.36;46.74;102521.09;5027822;28;20016;-65
2022/07/06 10:37:27;;;;;;;2.83;0.60;;;;;;;21.50;46.35;102529.94;5024543;28;20065;-69
2022/07/06 10:42:53;;;;;;;2.88;0.57;;;;;;;21.67;44.02;102527.00;5028829;28;20497;-70
2022/07/06 10:45:40;;;;;;;1.83;0.70;;;;;;;21.52;42.04;102522.09;5022154;28;20037;-69
2022/07/06 10:48:11;;;;;;;4.68;1.00;;;;;;;21.44;43.45;102526.25;5024379;28;20433;-70
2022/07/06 10:50:53;;;;;;;3.10;0.70;;;;;;;21.39;42.84;102528.09;5027087;28;20030;-69
2022/07/06 10:53:26;;;;;;;2.15;0.68;;;;;;;21.60;47.53;102524.44;5008716;28;20088;-70
2022/07/06 10:55:53;;;;;;;3.45;0.80;;;;;;;21.50;43.67;102514.00;5009568;28;20042;-65
2022/07/06 10:58:37;;;;;;;1.92;0.60;;;;;;;21.60;47.31;102518.84;5028119;28;20462;-70
2022/07/06 11:01:04;;;;;;;2.83;0.70;;;;;;;21.34;42.54;102517.75;5025214;28;20025;-70
2022/07/06 11:03:34;;;;;;;3.97;0.70;;;;;;;21.10;42.80;102517.16;5026827;28;20025;-70
2022/07/06 11:06:08;;;;;;;2.38;0.70;;;;;;;21.17;44.66;102509.38;5024762;28;20025;-69
2022/07/06 11:08:52;;;;;;;4.00;0.70;;;;;;;21.37;43.21;102508.81;5025126;28;20033;-70
2022/07/06 11:11:31;;;;;;;3.42;0.85;;;;;;;21.57;41.49;102512.94;5025648;28;20219;-69
2022/07/06 11:14:16;;;;;;;1.80;0.70;;;;;;;21.69;42.18;102517.22;5027673;28;20860;-71
2022/07/06 11:16:48;;;;;;;3.22;0.70;;;;;;;21.57;42.38;102519.38;5026852;28;20427;-70
2022/07/06 11:19:15;;;;;;;5.57;1.10;;;;;;;21.55;43.90;102517.97;5027691;28;20033;-69
2022/07/06 11:21:48;;;;;;;3.30;0.70;;;;;;;21.74;41.65;102519.25;5019683;28;20022;-72